Time;durP1;ratioP1;P1;durP2;ratioP2;P2;SDS_P1;SDS_P2;PMS_P1;PMS_P2;Temp;Humidity;BMP_temperature;BMP_pressure;BME280_temperature;BME280_humidity;BME280_pressure;Samples;Min_cycle;Max_cycle;Signal;HPM_P1;HPM_P2
2021/12/12 00:00:29;;;;;;;13.20;4.70;;;;;;;12.73;100.00;98189.72;5093344;28;20525;-57
2021/12/12 00:03:00;;;;;;;10.67;4.80;;;;;;;12.75;100.00;98187.13;5093371;28;20192;-57
2021/12/12 00:05:33;;;;;;;12.57;5.70;;;;;;;12.78;100.00;98176.78;5093069;28;20195;-57
2021/12/12 00:08:00;;;;;;;12.53;5.73;;;;;;;12.83;100.00;98174.97;5092575;28;20198;-57
2021/12/12 00:10:31;;;;;;;17.70;6.47;;;;;;;12.88;100.00;98201.56;5092858;28;20658;-57
2021/12/12 00:13:03;;;;;;;16.70;6.87;;;;;;;12.92;100.00;98175.72;5093091;28;20198;-57
2021/12/12 00:15:30;;;;;;;19.00;8.70;;;;;;;13.01;100.00;98143.78;5091769;28;20455;-57
2021/12/12 00:17:57;;;;;;;14.23;9.17;;;;;;;12.96;100.00;98137.88;5092709;28;20191;-57
2021/12/12 00:20:29;;;;;;;15.63;6.50;;;;;;;12.82;100.00;98116.59;5092897;28;20285;-57
2021/12/12 00:22:59;;;;;;;13.80;6.60;;;;;;;12.63;100.00;98084.25;5092942;28;20195;-57
2021/12/12 00:25:30;;;;;;;12.90;6.67;;;;;;;12.53;100.00;98044.00;5093091;28;20183;-57
2021/12/12 00:27:57;;;;;;;7.17;4.73;;;;;;;12.49;100.00;98021.75;5092687;28;20581;-57
2021/12/12 00:30:26;;;;;;;12.97;5.40;;;;;;;12.42;100.00;98041.59;5092574;28;20276;-57
2021/12/12 00:32:53;;;;;;;11.93;4.40;;;;;;;12.36;100.00;98037.38;5092591;28;20195;-57
2021/12/12 00:35:21;;;;;;;8.83;4.53;;;;;;;12.42;100.00;98069.91;5092361;28;20590;-57
2021/12/12 00:37:52;;;;;;;10.10;4.10;;;;;;;12.47;100.00;98067.31;5092453;28;20283;-57
2021/12/12 00:40:24;;;;;;;10.80;4.97;;;;;;;12.51;100.00;98066.38;5092160;28;20296;-57
2021/12/12 00:42:55;;;;;;;8.30;3.50;;;;;;;12.43;100.00;98074.22;5092472;28;20186;-57
2021/12/12 00:45:24;;;;;;;10.30;3.97;;;;;;;12.63;100.00;98116.00;5092260;28;20191;-57
2021/12/12 00:47:51;;;;;;;10.47;5.17;;;;;;;12.69;100.00;98135.69;5092255;28;20657;-57
2021/12/12 00:50:21;;;;;;;10.20;5.27;;;;;;;12.75;100.00;98140.72;5092502;28;20578;-57
2021/12/12 00:52:49;;;;;;;13.63;6.47;;;;;;;12.60;100.00;98116.06;5092101;28;20523;-57
2021/12/12 00:55:17;;;;;;;13.53;6.27;;;;;;;12.86;100.00;98151.75;5092345;28;20186;-57
2021/12/12 00:57:49;;;;;;;14.90;6.87;;;;;;;12.86;100.00;98154.31;5091921;28;20654;-57
2021/12/12 01:00:21;;;;;;;9.83;5.43;;;;;;;12.79;100.00;98137.25;5092032;28;20202;-57
2021/12/12 01:02:48;;;;;;;14.17;7.40;;;;;;;12.61;100.00;98161.53;5091972;28;20191;-57
2021/12/12 01:05:15;;;;;;;8.57;4.00;;;;;;;12.55;100.00;98171.09;5092215;28;20753;-57
2021/12/12 01:07:46;;;;;;;10.33;4.57;;;;;;;12.52;100.00;98163.41;5092059;28;20190;-57
2021/12/12 01:10:20;;;;;;;10.07;6.60;;;;;;;12.35;100.00;98123.25;5091867;28;20282;-57
2021/12/12 01:12:47;;;;;;;11.97;6.20;;;;;;;12.35;100.00;98125.84;5091612;28;20278;-57
2021/12/12 01:15:21;;;;;;;12.00;5.83;;;;;;;12.25;100.00;98139.66;5091777;28;20191;-57
2021/12/12 01:17:54;;;;;;;7.60;4.40;;;;;;;12.25;100.00;98162.84;5091455;28;20190;-57
2021/12/12 01:20:32;;;;;;;8.77;5.03;;;;;;;12.26;100.00;98180.00;5090544;28;20217;-57
2021/12/12 01:23:03;;;;;;;9.55;5.07;;;;;;;12.25;100.00;98191.19;5090483;28;20446;-57
2021/12/12 01:25:34;;;;;;;8.97;4.87;;;;;;;12.34;100.00;98196.22;5091806;28;20201;-57
2021/12/12 01:28:01;;;;;;;10.50;4.90;;;;;;;12.32;100.00;98185.09;5091920;28;20197;-57
2021/12/12 01:30:29;;;;;;;6.33;3.20;;;;;;;12.31;100.00;98191.09;5091670;28;20329;-57
2021/12/12 01:32:58;;;;;;;5.23;2.90;;;;;;;12.33;100.00;98193.69;5091231;28;20696;-60
2021/12/12 01:35:26;;;;;;;4.73;3.00;;;;;;;12.34;99.63;98215.97;5098103;28;20277;-60
2021/12/12 01:40:38;;;;;;;4.40;2.13;;;;;;;12.32;97.57;98205.69;5111118;28;21002;-57
2021/12/12 01:43:10;;;;;;;5.45;2.45;;;;;;;12.46;95.22;98226.16;5111609;28;20509;-57
2021/12/12 01:45:44;;;;;;;5.47;2.60;;;;;;;12.49;93.87;98214.94;5111655;28;20188;-57
2021/12/12 01:48:18;;;;;;;5.30;2.43;;;;;;;12.52;93.30;98210.63;5102588;28;20175;-57
2021/12/12 01:50:50;;;;;;;2.40;2.20;;;;;;;12.44;91.12;98221.00;5087763;28;20341;-57
2021/12/12 01:53:20;;;;;;;2.60;2.00;;;;;;;12.49;88.66;98215.81;5076403;28;20288;-57
2021/12/12 01:55:51;;;;;;;4.10;2.70;;;;;;;12.51;89.31;98226.09;5070009;28;20821;-57
2021/12/12 01:58:21;;;;;;;3.20;1.80;;;;;;;12.43;88.53;98221.03;5070663;28;20191;-57
2021/12/12 02:00:54;;;;;;;2.73;1.30;;;;;;;12.37;85.49;98221.94;5070895;28;20180;-57
2021/12/12 02:03:24;;;;;;;3.63;1.80;;;;;;;12.39;87.12;98224.50;5079072;28;20199;-60
2021/12/12 02:05:51;;;;;;;1.20;1.10;;;;;;;12.41;84.47;98221.03;5074800;28;20190;-60
2021/12/12 02:08:20;;;;;;;2.57;1.23;;;;;;;12.39;84.22;98235.66;5101036;28;20194;-60
2021/12/12 02:10:53;;;;;;;1.63;1.40;;;;;;;12.38;86.18;98236.53;5110940;28;20190;-57
2021/12/12 02:13:23;;;;;;;2.27;1.20;;;;;;;12.31;87.25;98234.88;5111181;28;20269;-57
2021/12/12 02:15:55;;;;;;;1.70;1.20;;;;;;;12.31;86.30;98245.19;5111265;28;20218;-57
2021/12/12 02:18:29;;;;;;;2.22;1.20;;;;;;;12.32;85.81;98236.59;5110134;28;20440;-57
2021/12/12 02:21:08;;;;;;;1.30;1.10;;;;;;;12.39;82.55;98230.50;5111042;28;20679;-57
2021/12/12 02:23:53;;;;;;;1.10;1.00;;;;;;;12.35;84.28;98228.00;5110835;28;20726;-57
2021/12/12 02:37:21;;;;;;;1.23;1.10;;;;;;;12.12;85.44;98235.94;5110759;28;20252;-57
2021/12/12 02:39:49;;;;;;;2.77;1.50;;;;;;;12.10;86.06;98232.56;5110625;28;20735;-57
2021/12/12 02:42:21;;;;;;;1.93;1.60;;;;;;;12.04;86.87;98226.59;5110975;28;20189;-57
2021/12/12 02:44:50;;;;;;;1.50;1.40;;;;;;;12.03;86.40;98228.31;5110612;28;20194;-57
2021/12/12 02:47:20;;;;;;;1.80;1.30;;;;;;;11.99;86.35;98230.94;5109718;28;20441;-57
2021/12/12 02:50:07;;;;;;;2.23;1.80;;;;;;;12.04;84.84;98234.31;5110718;28;20515;-57
2021/12/12 02:52:34;;;;;;;2.67;1.70;;;;;;;12.03;85.36;98235.22;5111011;28;20175;-57
2021/12/12 02:55:07;;;;;;;6.20;1.70;;;;;;;11.98;84.69;98236.94;5110466;28;20193;-57
2021/12/12 02:57:34;;;;;;;1.50;1.33;;;;;;;11.81;84.14;98244.84;5110415;28;20218;-57
2021/12/12 03:00:01;;;;;;;3.00;1.57;;;;;;;11.71;84.93;98250.91;5110833;28;20190;-57
2021/12/12 03:02:33;;;;;;;2.50;1.60;;;;;;;11.73;85.73;98256.91;5096941;28;20606;-57
2021/12/12 03:05:05;;;;;;;3.07;1.40;;;;;;;11.78;84.48;98261.13;5110490;28;20197;-57
2021/12/12 03:07:32;;;;;;;1.63;1.50;;;;;;;11.82;84.89;98261.97;5110520;28;20732;-57
2021/12/12 03:10:00;;;;;;;2.83;1.30;;;;;;;11.78;85.45;98271.44;5110783;28;20186;-57
2021/12/12 03:12:33;;;;;;;3.37;1.80;;;;;;;11.66;87.08;98270.66;5110680;28;20198;-58
2021/12/12 03:15:04;;;;;;;4.30;2.33;;;;;;;11.43;87.78;98267.38;5110610;28;20207;-57
2021/12/12 03:17:31;;;;;;;4.23;2.40;;;;;;;11.37;87.87;98275.16;5110370;28;20589;-57
2021/12/12 03:20:07;;;;;;;4.63;2.50;;;;;;;11.27;88.39;98275.22;5110338;28;20269;-57
2021/12/12 03:22:34;;;;;;;4.28;3.00;;;;;;;11.33;89.09;98294.03;5109772;28;20988;-57
2021/12/12 03:25:01;;;;;;;7.63;3.40;;;;;;;11.34;89.15;98296.63;5110332;28;20198;-57
2021/12/12 03:27:29;;;;;;;6.07;4.00;;;;;;;11.34;89.70;98298.31;5110413;28;20572;-57
2021/12/12 03:29:57;;;;;;;5.23;4.17;;;;;;;11.26;90.15;98290.66;5110171;28;20205;-57
2021/12/12 03:32:24;;;;;;;8.23;4.00;;;;;;;11.21;90.89;98293.25;5110155;28;20280;-57
2021/12/12 03:34:57;;;;;;;4.83;3.70;;;;;;;11.26;90.75;98306.09;5110059;28;20288;-57
2021/12/12 03:37:28;;;;;;;4.43;3.90;;;;;;;11.22;91.22;98300.09;5110440;28;20186;-58
2021/12/12 03:39:57;;;;;;;4.13;2.97;;;;;;;11.24;91.17;98318.94;5110329;28;20270;-57
2021/12/12 03:42:27;;;;;;;6.07;3.60;;;;;;;11.25;91.38;98318.09;5111251;28;20185;-57
2021/12/12 03:44:57;;;;;;;5.90;3.30;;;;;;;11.29;91.67;98336.91;5113746;28;20284;-57
2021/12/12 03:47:28;;;;;;;6.37;4.13;;;;;;;11.25;91.59;98333.50;5114050;28;20269;-57
2021/12/12 03:49:59;;;;;;;9.30;5.10;;;;;;;11.13;92.38;98341.28;5112791;28;20430;-57
2021/12/12 03:52:26;;;;;;;11.73;6.00;;;;;;;11.02;93.32;98332.75;5114062;28;20174;-57
2021/12/12 03:54:59;;;;;;;12.70;7.13;;;;;;;11.00;93.79;98326.78;5113488;28;20177;-57
2021/12/12 03:57:30;;;;;;;12.83;6.60;;;;;;;10.95;94.73;98336.22;5113758;28;20206;-57
2021/12/12 03:59:58;;;;;;;9.17;6.53;;;;;;;10.99;95.22;98348.19;5113733;28;20205;-57
2021/12/12 04:02:26;;;;;;;11.50;6.60;;;;;;;10.98;94.85;98363.63;5113694;28;20589;-57
2021/12/12 04:04:53;;;;;;;8.07;5.27;;;;;;;10.91;95.19;98360.19;5113596;28;20636;-57
2021/12/12 04:07:22;;;;;;;10.30;5.23;;;;;;;10.78;95.45;98355.97;5113471;28;20197;-57
2021/12/12 04:09:50;;;;;;;9.60;5.67;;;;;;;10.70;95.82;98355.13;5113307;28;20175;-57
2021/12/12 04:12:19;;;;;;;8.63;5.70;;;;;;;10.72;96.19;98349.97;5112177;28;20442;-57
2021/12/12 04:14:47;;;;;;;6.67;5.00;;;;;;;10.74;96.04;98359.41;5113073;28;20194;-57
2021/12/12 04:17:19;;;;;;;6.57;4.50;;;;;;;10.65;96.23;98367.16;5113157;28;20198;-57
2021/12/12 04:19:49;;;;;;;10.10;6.27;;;;;;;10.51;97.23;98374.00;5108708;28;20209;-57
2021/12/12 04:22:16;;;;;;;9.57;6.63;;;;;;;10.41;97.71;98373.16;5109544;28;20194;-57
2021/12/12 04:24:46;;;;;;;9.30;6.70;;;;;;;10.40;98.40;98376.59;5096082;28;20205;-57
2021/12/12 04:27:15;;;;;;;9.77;7.00;;;;;;;10.40;99.48;98378.31;5092684;28;20183;-57
2021/12/12 04:29:45;;;;;;;17.60;10.53;;;;;;;10.37;99.55;98386.88;5092363;28;20285;-57
2021/12/12 04:32:17;;;;;;;15.27;8.17;;;;;;;10.40;99.70;98383.44;5092749;28;20197;-57
2021/12/12 04:34:47;;;;;;;12.07;7.53;;;;;;;10.40;99.25;98375.75;5092472;28;20197;-57
2021/12/12 04:37:15;;;;;;;23.43;17.73;;;;;;;10.38;99.66;98365.47;5092580;28;20221;-57
2021/12/12 04:39:48;;;;;;;13.80;9.57;;;;;;;10.22;99.84;98362.94;5092467;28;20432;-57
2021/12/12 04:42:17;;;;;;;9.60;8.43;;;;;;;10.11;100.00;98377.44;5092829;28;20207;-57
2021/12/12 04:44:48;;;;;;;11.93;9.03;;;;;;;10.13;100.00;98388.59;5092287;28;20187;-57
2021/12/12 04:50:21;;;;;;;12.50;9.50;;;;;;;9.95;100.00;98397.09;5058486;28;20222;-57
2021/12/12 04:52:53;;;;;;;13.63;10.80;;;;;;;9.95;100.00;98408.22;5091832;28;20190;-57
2021/12/12 04:55:26;;;;;;;19.13;12.73;;;;;;;9.94;100.00;98427.00;5092174;28;20206;-57
2021/12/12 04:58:03;;;;;;;16.80;12.73;;;;;;;9.95;100.00;98439.00;5091873;28;20222;-57
2021/12/12 05:00:33;;;;;;;13.93;10.73;;;;;;;9.88;100.00;98446.69;5091844;28;20202;-57
2021/12/12 05:03:12;;;;;;;14.10;9.37;;;;;;;9.87;100.00;98450.97;5091768;28;20277;-57
2021/12/12 05:05:48;;;;;;;14.47;8.07;;;;;;;9.86;100.00;98453.53;5091786;28;20660;-57
2021/12/12 05:08:24;;;;;;;9.53;7.37;;;;;;;9.85;100.00;98454.38;5091838;28;20194;-57
2021/12/12 05:10:58;;;;;;;8.97;5.90;;;;;;;9.83;100.00;98456.91;5091723;28;20193;-57
2021/12/12 05:13:31;;;;;;;12.13;8.30;;;;;;;9.79;100.00;98456.91;5091839;28;20199;-57
2021/12/12 05:16:01;;;;;;;10.90;8.17;;;;;;;9.72;100.00;98466.31;5091802;28;20211;-57
2021/12/12 05:18:32;;;;;;;11.63;9.53;;;;;;;9.72;100.00;98475.72;5091605;28;20221;-57
2021/12/12 05:21:04;;;;;;;11.23;8.80;;;;;;;9.76;100.00;98459.47;5091935;28;20285;-57
2021/12/12 05:23:33;;;;;;;12.03;8.70;;;;;;;9.72;100.00;98458.63;5091778;28;20198;-57
2021/12/12 05:26:04;;;;;;;14.40;9.20;;;;;;;9.64;100.00;98470.53;5091500;28;20192;-57
2021/12/12 05:28:34;;;;;;;14.80;9.17;;;;;;;9.65;100.00;98484.22;5091591;28;20197;-56
2021/12/12 05:31:02;;;;;;;11.97;6.80;;;;;;;9.57;100.00;98489.34;5091220;28;20222;-56
2021/12/12 05:33:32;;;;;;;10.30;6.37;;;;;;;9.40;100.00;98485.84;5091284;28;20186;-56
2021/12/12 05:35:59;;;;;;;6.87;5.90;;;;;;;9.45;100.00;98491.84;5091115;28;20187;-56
2021/12/12 05:38:28;;;;;;;11.33;9.63;;;;;;;9.47;100.00;98474.78;5091070;28;20214;-57
2021/12/12 05:40:56;;;;;;;11.83;8.60;;;;;;;9.42;100.00;98486.72;5091271;28;20274;-56
2021/12/12 05:43:24;;;;;;;15.40;9.70;;;;;;;9.42;100.00;98500.38;5091112;28;20277;-57
2021/12/12 05:45:53;;;;;;;14.67;8.93;;;;;;;9.39;100.00;98504.66;5090932;28;20197;-56
2021/12/12 05:48:21;;;;;;;15.70;11.30;;;;;;;9.39;100.00;98502.91;5091214;28;20202;-57
2021/12/12 05:50:51;;;;;;;15.13;11.23;;;;;;;9.45;100.00;98500.38;5091031;28;20205;-56
2021/12/12 05:53:19;;;;;;;15.07;11.13;;;;;;;9.53;100.00;98518.41;5091084;28;20524;-57
2021/12/12 05:55:47;;;;;;;13.63;10.57;;;;;;;9.58;100.00;98520.97;5091025;28;20318;-56
2021/12/12 05:58:17;;;;;;;14.70;10.30;;;;;;;9.58;100.00;98537.22;5090877;28;20222;-57
2021/12/12 06:00:48;;;;;;;13.57;8.80;;;;;;;9.56;100.00;98544.03;5090856;28;20569;-57
2021/12/12 06:03:20;;;;;;;11.97;9.17;;;;;;;9.52;100.00;98542.31;5090766;28;20191;-57
2021/12/12 06:05:47;;;;;;;14.25;11.05;;;;;;;9.49;100.00;98550.84;5089655;28;20436;-56
2021/12/12 06:08:17;;;;;;;14.47;10.27;;;;;;;9.53;100.00;98556.84;5090705;28;20278;-57
2021/12/12 06:10:44;;;;;;;14.63;11.60;;;;;;;9.53;100.00;98549.16;5090383;28;20822;-56
2021/12/12 06:13:15;;;;;;;12.77;9.73;;;;;;;9.42;100.00;98559.34;5090759;28;20191;-57
2021/12/12 06:15:45;;;;;;;11.90;8.43;;;;;;;9.23;100.00;98549.00;5090913;28;20640;-56
2021/12/12 06:18:13;;;;;;;19.60;12.93;;;;;;;9.36;100.00;98571.28;5090493;28;20613;-56
2021/12/12 06:20:41;;;;;;;18.67;14.07;;;;;;;9.37;100.00;98581.53;5090911;28;20201;-56
2021/12/12 06:23:10;;;;;;;21.00;14.85;;;;;;;9.39;100.00;98579.81;5089974;28;20438;-57
2021/12/12 06:25:39;;;;;;;12.87;8.90;;;;;;;9.43;100.00;98579.00;5090710;28;20266;-57
2021/12/12 06:28:10;;;;;;;14.93;9.63;;;;;;;9.49;100.00;98593.56;5091068;28;20270;-57
2021/12/12 06:30:37;;;;;;;14.77;11.73;;;;;;;9.57;100.00;98597.03;5090039;28;20268;-56
2021/12/12 06:33:05;;;;;;;20.30;14.77;;;;;;;9.72;100.00;98604.81;5090291;28;20175;-57
2021/12/12 06:35:33;;;;;;;19.37;14.50;;;;;;;9.70;100.00;98605.63;5090529;28;20190;-57
2021/12/12 06:38:03;;;;;;;28.70;19.77;;;;;;;9.67;100.00;98603.91;5090119;28;20252;-57
2021/12/12 06:40:30;;;;;;;27.43;18.83;;;;;;;9.63;100.00;98607.34;5090235;28;20197;-57
2021/12/12 06:43:00;;;;;;;28.33;19.83;;;;;;;9.69;100.00;98622.75;5090249;28;20193;-57
2021/12/12 06:45:27;;;;;;;28.10;19.83;;;;;;;9.86;100.00;98623.69;5090316;28;20278;-57
2021/12/12 06:47:55;;;;;;;22.50;17.27;;;;;;;9.90;100.00;98635.69;5090203;28;20230;-57
2021/12/12 06:50:24;;;;;;;24.10;16.97;;;;;;;9.93;99.93;98640.84;5090447;28;20201;-57
2021/12/12 06:52:52;;;;;;;22.80;16.70;;;;;;;10.00;99.47;98640.00;5078868;28;20287;-57
2021/12/12 06:55:20;;;;;;;24.87;16.90;;;;;;;10.06;99.22;98645.16;5083160;28;20657;-57
2021/12/12 06:57:47;;;;;;;14.95;10.95;;;;;;;10.07;98.30;98644.34;5082553;28;20454;-57
2021/12/12 07:00:21;;;;;;;19.07;14.10;;;;;;;10.09;97.39;98654.59;5069636;28;20186;-57
2021/12/12 07:02:49;;;;;;;23.38;16.95;;;;;;;9.99;97.97;98643.44;5069343;28;20446;-57
2021/12/12 07:05:19;;;;;;;20.53;15.33;;;;;;;10.12;97.08;98646.03;5075057;28;20188;-57
2021/12/12 07:07:47;;;;;;;21.40;15.40;;;;;;;10.12;96.76;98646.03;5079896;28;20267;-57
2021/12/12 07:10:16;;;;;;;22.77;15.37;;;;;;;10.11;96.53;98641.78;5075119;28;20192;-57
2021/12/12 07:12:45;;;;;;;19.90;15.17;;;;;;;10.15;96.80;98656.34;5069949;28;20194;-57
2021/12/12 07:15:16;;;;;;;21.47;15.57;;;;;;;10.23;96.16;98654.69;5069758;28;20188;-57
2021/12/12 07:17:44;;;;;;;19.87;13.67;;;;;;;10.20;96.17;98647.81;5071014;28;20222;-57
2021/12/12 07:20:13;;;;;;;16.73;12.43;;;;;;;10.26;96.39;98660.69;5073628;28;20223;-57
2021/12/12 07:22:40;;;;;;;20.37;14.87;;;;;;;10.28;96.13;98658.13;5078516;28;20187;-57
2021/12/12 07:25:09;;;;;;;18.97;13.03;;;;;;;10.32;95.96;98654.72;5092554;28;20187;-57
2021/12/12 07:27:36;;;;;;;17.13;13.73;;;;;;;10.40;96.10;98658.19;5084244;28;20190;-57
2021/12/12 07:30:05;;;;;;;16.17;13.33;;;;;;;10.44;95.87;98658.19;5092899;28;20305;-57
2021/12/12 07:32:33;;;;;;;12.15;10.70;;;;;;;10.54;96.67;98666.78;5093487;28;20447;-58
2021/12/12 07:35:01;;;;;;;11.63;10.10;;;;;;;10.64;95.55;98678.78;5093539;28;20565;-58
2021/12/12 07:37:30;;;;;;;15.90;10.67;;;;;;;10.65;94.89;98688.22;5093522;28;20578;-58
2021/12/12 07:39:57;;;;;;;18.33;12.23;;;;;;;10.74;93.67;98692.53;5093371;28;20562;-58
2021/12/12 07:42:24;;;;;;;20.97;13.20;;;;;;;10.84;92.91;98692.56;5093302;28;20202;-57
2021/12/12 07:44:53;;;;;;;15.43;11.77;;;;;;;10.90;93.10;98695.16;5093500;28;20209;-56
2021/12/12 07:47:19;;;;;;;14.63;9.57;;;;;;;11.03;92.38;98702.00;5093158;28;20191;-57
2021/12/12 07:49:50;;;;;;;12.33;9.33;;;;;;;11.15;92.73;98707.16;5093023;28;20201;-57
2021/12/12 07:52:19;;;;;;;13.33;10.03;;;;;;;11.24;91.76;98714.03;5092764;28;20195;-57
2021/12/12 07:54:49;;;;;;;12.80;9.30;;;;;;;11.25;90.05;98706.31;5093296;28;20297;-57
2021/12/12 07:57:17;;;;;;;18.87;12.73;;;;;;;11.17;89.51;98718.31;5092871;28;20198;-57
2021/12/12 07:59:45;;;;;;;21.03;13.73;;;;;;;11.08;89.67;98708.00;5093144;28;20187;-57
2021/12/12 08:02:14;;;;;;;18.87;13.50;;;;;;;11.20;89.93;98728.59;5093121;28;20281;-57
2021/12/12 08:04:43;;;;;;;18.10;11.87;;;;;;;11.07;90.09;98741.44;5092981;28;20191;-58
2021/12/12 08:07:15;;;;;;;19.47;13.43;;;;;;;11.21;89.37;98742.28;5092700;28;20671;-57
2021/12/12 08:09:43;;;;;;;21.43;14.70;;;;;;;11.31;89.56;98749.19;5092706;28;20617;-58
2021/12/12 08:12:11;;;;;;;18.97;13.67;;;;;;;11.46;88.87;98746.63;5092700;28;20240;-57
2021/12/12 08:14:38;;;;;;;24.93;14.30;;;;;;;11.61;88.77;98750.91;5092940;28;20278;-58
2021/12/12 08:17:07;;;;;;;20.97;14.90;;;;;;;11.71;88.39;98752.66;5092498;28;20202;-57
2021/12/12 08:19:34;;;;;;;15.53;10.53;;;;;;;11.82;87.58;98758.66;5092495;28;20616;-57
2021/12/12 08:22:05;;;;;;;16.07;10.00;;;;;;;11.88;87.03;98750.94;5092276;28;20191;-57
2021/12/12 08:24:35;;;;;;;12.10;9.87;;;;;;;11.94;86.15;98760.38;5092860;28;20302;-58
2021/12/12 08:27:03;;;;;;;11.33;8.90;;;;;;;12.05;85.02;98761.22;5092525;28;20194;-58
2021/12/12 08:29:31;;;;;;;11.43;9.23;;;;;;;11.94;84.47;98770.66;5091378;28;20654;-57
2021/12/12 08:31:58;;;;;;;12.53;9.57;;;;;;;11.79;85.15;98774.97;5092024;28;20284;-56
2021/12/12 08:34:27;;;;;;;12.47;9.47;;;;;;;11.82;86.22;98774.97;5092041;28;20629;-57
2021/12/12 08:36:56;;;;;;;12.40;9.70;;;;;;;11.96;86.68;98776.66;5092003;28;20191;-57
2021/12/12 08:39:25;;;;;;;12.87;8.77;;;;;;;12.11;86.00;98780.09;5091981;28;20222;-57
2021/12/12 08:41:54;;;;;;;10.50;6.80;;;;;;;12.13;84.49;98774.94;5092106;28;20191;-57
2021/12/12 08:44:22;;;;;;;11.37;7.60;;;;;;;12.11;83.43;98772.38;5092198;28;20586;-57
2021/12/12 08:46:51;;;;;;;10.73;7.27;;;;;;;12.21;83.96;98775.78;5091714;28;20199;-58
2021/12/12 08:49:21;;;;;;;5.33;4.43;;;;;;;12.15;83.22;98786.09;5092778;28;20277;-57
2021/12/12 08:51:52;;;;;;;5.37;3.13;;;;;;;11.96;83.10;98792.13;5101630;28;20206;-58
2021/12/12 08:54:23;;;;;;;12.17;3.47;;;;;;;12.10;82.89;98791.25;5112508;28;20198;-58
2021/12/12 08:57:02;;;;;;;3.37;2.80;;;;;;;12.15;82.97;98794.66;5112202;28;20573;-58
2021/12/12 08:59:30;;;;;;;9.40;3.73;;;;;;;12.19;83.85;98790.38;5112097;28;20604;-58
2021/12/12 09:02:00;;;;;;;7.35;3.55;;;;;;;12.26;82.48;98799.81;5111391;28;20430;-58
2021/12/12 09:04:31;;;;;;;7.93;3.43;;;;;;;12.48;82.97;98800.59;5112365;28;20186;-58
2021/12/12 09:07:01;;;;;;;4.20;3.50;;;;;;;12.66;82.51;98801.41;5112428;28;20281;-59
2021/12/12 09:09:33;;;;;;;8.60;3.40;;;;;;;12.83;81.86;98801.34;5111860;28;20696;-57
2021/12/12 09:12:05;;;;;;;7.33;4.23;;;;;;;12.88;80.67;98800.47;5111532;28;20297;-58
2021/12/12 09:14:36;;;;;;;7.13;3.63;;;;;;;12.94;80.83;98794.44;5112055;28;20187;-58
2021/12/12 09:17:07;;;;;;;8.63;4.20;;;;;;;12.94;79.76;98792.72;5111798;28;20677;-57
2021/12/12 09:19:38;;;;;;;15.10;6.90;;;;;;;12.92;80.61;98803.91;5111550;28;20202;-57
2021/12/12 09:22:11;;;;;;;9.27;5.57;;;;;;;12.91;81.36;98799.63;5111960;28;20244;-55
2021/12/12 09:24:45;;;;;;;11.90;5.73;;;;;;;13.04;81.86;98811.59;5107851;28;20274;-57
2021/12/12 09:27:18;;;;;;;13.00;5.23;;;;;;;13.16;82.16;98814.13;5081196;28;20198;-57
2021/12/12 09:29:53;;;;;;;25.53;14.07;;;;;;;13.24;81.72;98812.38;5080864;28;20243;-57
2021/12/12 09:32:28;;;;;;;18.73;10.37;;;;;;;13.33;81.43;98814.03;5085953;28;20214;-57
2021/12/12 09:35:01;;;;;;;13.97;7.00;;;;;;;13.26;80.91;98812.38;5091178;28;20185;-57
2021/12/12 09:37:35;;;;;;;4.27;3.47;;;;;;;13.25;80.00;98798.59;5090930;28;20202;-58
2021/12/12 09:40:13;;;;;;;6.67;4.27;;;;;;;13.21;80.38;98816.69;5095488;28;20261;-58
2021/12/12 09:42:59;;;;;;;6.80;4.07;;;;;;;13.27;80.34;98819.22;5108431;28;20197;-58
2021/12/12 09:45:55;;;;;;;10.90;4.57;;;;;;;13.45;80.38;98811.41;5111182;28;20202;-57
2021/12/12 09:51:57;;;;;;;11.30;4.97;;;;;;;13.73;79.61;98814.66;5111507;28;20235;-58
2021/12/12 09:54:32;;;;;;;5.23;3.20;;;;;;;13.82;78.97;98820.59;5111304;28;20281;-57
2021/12/12 09:57:06;;;;;;;7.37;4.37;;;;;;;13.92;78.50;98813.63;5110881;28;20201;-58
2021/12/12 09:59:49;;;;;;;11.83;4.23;;;;;;;13.99;78.50;98826.47;5111426;28;20198;-58
2021/12/12 10:02:26;;;;;;;5.77;3.47;;;;;;;14.02;78.31;98823.00;5110834;28;20194;-58
2021/12/12 10:05:14;;;;;;;6.85;4.55;;;;;;;14.05;77.74;98823.00;5110079;28;20810;-58
2021/12/12 10:07:58;;;;;;;9.00;5.07;;;;;;;13.95;77.91;98826.53;5110725;28;20213;-58
2021/12/12 10:10:30;;;;;;;10.23;5.20;;;;;;;13.88;78.94;98830.88;5109847;28;20470;-58
2021/12/12 10:13:02;;;;;;;5.20;4.17;;;;;;;13.87;78.50;98831.72;5110819;28;20178;-58
2021/12/12 10:15:39;;;;;;;10.33;5.23;;;;;;;13.92;78.76;98827.41;5110705;28;20657;-58
2021/12/12 10:18:11;;;;;;;5.47;3.90;;;;;;;13.97;78.72;98828.22;5110664;28;20189;-57
2021/12/12 10:20:42;;;;;;;10.73;4.87;;;;;;;14.02;78.19;98830.75;5110536;28;20287;-57
2021/12/12 10:23:21;;;;;;;6.30;3.73;;;;;;;14.03;77.13;98829.91;5110945;28;20194;-57
2021/12/12 10:25:56;;;;;;;6.63;4.43;;;;;;;14.03;77.37;98823.03;5110615;28;20197;-57
2021/12/12 10:28:28;;;;;;;6.23;3.93;;;;;;;14.12;76.90;98829.81;5110327;28;20198;-57
2021/12/12 10:31:02;;;;;;;9.90;4.27;;;;;;;14.21;75.91;98819.41;5110537;28;20796;-58
2021/12/12 10:33:36;;;;;;;5.77;4.70;;;;;;;14.29;75.46;98830.53;5110489;28;20209;-57
2021/12/12 10:36:07;;;;;;;7.43;4.87;;;;;;;14.42;75.52;98839.91;5110499;28;20292;-58
2021/12/12 10:38:39;;;;;;;13.67;6.80;;;;;;;14.46;75.63;98833.84;5110319;28;21069;-57
2021/12/12 10:41:12;;;;;;;10.40;6.33;;;;;;;14.51;75.09;98833.78;5110575;28;20537;-57
2021/12/12 10:43:41;;;;;;;15.63;7.50;;;;;;;14.45;74.91;98819.19;5109852;28;20526;-57
2021/12/12 10:46:17;;;;;;;8.27;6.57;;;;;;;14.37;75.30;98823.59;5110030;28;20190;-57
2021/12/12 10:48:56;;;;;;;8.97;6.93;;;;;;;14.47;75.70;98832.13;5110625;28;20892;-57
2021/12/12 10:51:25;;;;;;;9.30;6.83;;;;;;;14.34;76.40;98823.59;5111382;28;20193;-57
2021/12/12 10:54:04;;;;;;;11.93;7.43;;;;;;;14.48;76.85;98826.91;5114464;28;20316;-57
2021/12/12 10:56:35;;;;;;;12.95;8.45;;;;;;;14.59;76.77;98829.38;5113084;28;20466;-57
2021/12/12 10:59:11;;;;;;;11.87;8.03;;;;;;;14.65;76.15;98824.16;5114336;28;20241;-57
2021/12/12 11:01:44;;;;;;;11.00;7.43;;;;;;;14.62;76.10;98839.69;5113617;28;20445;-57
2021/12/12 11:04:16;;;;;;;9.53;7.67;;;;;;;14.56;76.11;98826.84;5114066;28;20284;-57
2021/12/12 11:06:47;;;;;;;12.23;8.30;;;;;;;14.54;77.33;98844.09;5113949;28;20216;-57
2021/12/12 11:09:18;;;;;;;10.37;7.77;;;;;;;14.47;76.79;98835.56;5114006;28;20191;-57
2021/12/12 11:11:50;;;;;;;17.47;8.97;;;;;;;14.38;76.87;98829.63;5109854;28;20295;-57
2021/12/12 11:14:21;;;;;;;11.93;8.97;;;;;;;14.34;75.73;98826.19;5105136;28;20576;-57
2021/12/12 11:16:54;;;;;;;14.20;9.93;;;;;;;14.33;75.94;98836.56;5113864;28;20194;-57
2021/12/12 11:19:29;;;;;;;12.80;9.17;;;;;;;14.13;76.42;98837.56;5114291;28;20208;-57
2021/12/12 11:22:01;;;;;;;13.90;8.93;;;;;;;14.02;77.63;98841.09;5114072;28;20189;-57
2021/12/12 11:24:32;;;;;;;12.23;9.33;;;;;;;13.99;77.78;98841.13;5090321;28;20186;-58
2021/12/12 11:27:05;;;;;;;13.57;9.50;;;;;;;13.94;78.89;98845.47;5074216;28;20578;-57
2021/12/12 11:29:36;;;;;;;12.10;8.67;;;;;;;13.93;79.43;98842.03;5073104;28;20659;-58
2021/12/12 11:32:07;;;;;;;9.00;6.67;;;;;;;13.90;78.13;98842.03;5072519;28;20282;-57
2021/12/12 11:34:36;;;;;;;7.10;6.00;;;;;;;13.85;76.51;98853.28;5073293;28;20194;-57
2021/12/12 11:37:12;;;;;;;8.23;7.00;;;;;;;13.88;77.69;98861.00;5073179;28;20200;-57
2021/12/12 11:39:47;;;;;;;12.97;8.43;;;;;;;13.82;78.11;98859.31;5072841;28;20220;-57
2021/12/12 11:42:20;;;;;;;12.73;9.10;;;;;;;13.69;78.37;98857.69;5073138;28;20527;-57
2021/12/12 11:44:56;;;;;;;11.10;8.30;;;;;;;13.81;78.23;98854.19;5073069;28;20284;-57
2021/12/12 11:47:53;;;;;;;15.67;9.77;;;;;;;13.88;78.15;98853.25;5072609;28;20193;-57
2021/12/12 11:50:29;;;;;;;15.63;10.40;;;;;;;13.94;77.90;98848.91;5087034;28;20203;-57
2021/12/12 11:53:02;;;;;;;13.47;11.33;;;;;;;14.00;77.83;98853.19;5103354;28;20580;-57
2021/12/12 11:55:37;;;;;;;13.57;10.90;;;;;;;14.02;77.61;98846.25;5113561;28;20209;-57
2021/12/12 11:58:15;;;;;;;13.03;10.40;;;;;;;13.99;77.88;98838.53;5106285;28;20208;-58
2021/12/12 12:00:49;;;;;;;14.10;9.27;;;;;;;14.02;77.88;98836.78;5092978;28;20212;-59